Aduana, Mexico

4:52 PM EST on January 17, 2018 (GMT -0500)
Cancun International | | Change Station

Elev 23 ft 21.03 °N, 86.87 °W | Updated 1 hour ago

Overcast
Overcast
70 °F
Feels Like 70 °F
N
5
Wind Variable Wind from NNW

Today
High -- | Low -- °F
--% Chance of Precip.
Yesterday
High -- | Low -- °F
Precip. -- in
Pressure 30.17 in
Visibility 6.0 miles
Clouds Scattered Clouds 800 ft
Mostly Cloudy 1500 ft
Overcast 7000 ft
Dew Point 66 °F
Humidity 88%
Rainfall 0.05 in
Snow Depth Not available.
7:27 AM 6:28 PM
New Moon, 1% visible
METAR MMUN 172049Z 33004KT 6SM SCT008 BKN015 OVC070 21/19 A3017 RMK SLP216 57021 909 60005 8/77/ -RAE35
Pressure 30.17 in
Visibility 6.0 miles
Clouds Scattered Clouds 800 ft
Mostly Cloudy 1500 ft
Overcast 7000 ft
Dew Point 66 °F
Humidity 88%
Rainfall 0.05 in
Snow Depth Not available.
7:27 AM 6:28 PM
New Moon, 1% visible
METAR MMUN 172049Z 33004KT 6SM SCT008 BKN015 OVC070 21/19 A3017 RMK SLP216 57021 909 60005 8/77/ -RAE35

Get Severe Weather Alerts

Thanks for signing up!

Be on the lookout for a verification email in your inbox.

You'll start receiving the daily forecast at 6 AM.

×

10-Day Weather Forecast

No radar image for this location.
×

Almanac

Astronomy

Jan. 17, 2018 Rise Set
Actual Time
Civil Twilight
Nautical Twilight
Astronomical Twilight
Moon
Length of Visible Light
Length of Day
Tomorrow will be .
, % of the Moon is Illuminated

Today's Extremes

Country Highs Country Lows

Community

WunderPhotos

Category 6

Welcome to Category 6. This is the collective home for Weather Underground's featured writeups by Dr. Jeff Masters (right), Bob Henson (left), Chris Burt, and other regular contributors.

Nearby

Air Quality

  Air Quality AQ Index Pollutant
Not available.

Snow Depth

Station Depth Elevation

Earthquake Activity

City Distance Mag. Time & Date
Minimum magnitude displayed is 2.5.

Coastal Water Temperatures

Place Temperature

Stations

Nearby Weather Stations

Station Location Temp. Windchill Dew Point Humidity Wind Precip. Elev Updated Type